sensor_id;sensor_type;location;lat;lon;timestamp;P1;durP1;ratioP1;P2;durP2;ratioP2
61385;SDS011;47256;18.904;-99.054;2023-05-20T00:02:10;19.13;;;11.35;;
61385;SDS011;47256;18.904;-99.054;2023-05-20T00:04:37;19.15;;;12.63;;
61385;SDS011;47256;18.904;-99.054;2023-05-20T00:07:07;15.43;;;12.00;;
61385;SDS011;47256;18.904;-99.054;2023-05-20T00:09:37;22.67;;;13.27;;
61385;SDS011;47256;18.904;-99.054;2023-05-20T00:12:05;22.60;;;12.20;;
61385;SDS011;47256;18.904;-99.054;2023-05-20T00:14:32;23.42;;;13.55;;
61385;SDS011;47256;18.904;-99.054;2023-05-20T00:16:59;44.75;;;14.10;;
61385;SDS011;47256;18.904;-99.054;2023-05-20T00:19:26;59.60;;;14.63;;
61385;SDS011;47256;18.904;-99.054;2023-05-20T00:21:54;29.70;;;13.23;;
61385;SDS011;47256;18.904;-99.054;2023-05-20T00:24:23;23.45;;;13.77;;
61385;SDS011;47256;18.904;-99.054;2023-05-20T00:26:52;19.10;;;13.65;;
61385;SDS011;47256;18.904;-99.054;2023-05-20T00:29:20;16.15;;;12.50;;
61385;SDS011;47256;18.904;-99.054;2023-05-20T00:31:47;23.60;;;14.00;;
61385;SDS011;47256;18.904;-99.054;2023-05-20T00:34:14;29.80;;;14.60;;
61385;SDS011;47256;18.904;-99.054;2023-05-20T00:36:42;64.45;;;18.15;;
61385;SDS011;47256;18.904;-99.054;2023-05-20T00:39:09;58.15;;;16.38;;
61385;SDS011;47256;18.904;-99.054;2023-05-20T00:41:38;39.88;;;15.52;;
61385;SDS011;47256;18.904;-99.054;2023-05-20T00:44:05;39.92;;;14.95;;
61385;SDS011;47256;18.904;-99.054;2023-05-20T00:46:32;20.20;;;11.95;;
61385;SDS011;47256;18.904;-99.054;2023-05-20T00:49:00;36.00;;;15.05;;
61385;SDS011;47256;18.904;-99.054;2023-05-20T00:51:28;30.88;;;12.10;;
61385;SDS011;47256;18.904;-99.054;2023-05-20T00:53:55;27.98;;;11.70;;
61385;SDS011;47256;18.904;-99.054;2023-05-20T00:56:24;23.08;;;12.32;;
61385;SDS011;47256;18.904;-99.054;2023-05-20T00:58:52;18.02;;;12.43;;
61385;SDS011;47256;18.904;-99.054;2023-05-20T01:01:20;30.38;;;12.60;;
61385;SDS011;47256;18.904;-99.054;2023-05-20T01:03:47;22.80;;;13.40;;
61385;SDS011;47256;18.904;-99.054;2023-05-20T01:06:16;22.77;;;12.10;;
61385;SDS011;47256;18.904;-99.054;2023-05-20T01:08:43;17.60;;;11.27;;
61385;SDS011;47256;18.904;-99.054;2023-05-20T01:11:16;17.92;;;11.77;;
61385;SDS011;47256;18.904;-99.054;2023-05-20T01:13:56;30.05;;;13.20;;
61385;SDS011;47256;18.904;-99.054;2023-05-20T01:16:30;20.63;;;12.75;;
61385;SDS011;47256;18.904;-99.054;2023-05-20T01:18:58;26.77;;;14.07;;
61385;SDS011;47256;18.904;-99.054;2023-05-20T01:21:30;23.45;;;13.50;;
61385;SDS011;47256;18.904;-99.054;2023-05-20T01:23:59;28.75;;;13.48;;
61385;SDS011;47256;18.904;-99.054;2023-05-20T01:26:26;30.85;;;13.75;;
61385;SDS011;47256;18.904;-99.054;2023-05-20T01:28:53;35.15;;;13.73;;
61385;SDS011;47256;18.904;-99.054;2023-05-20T01:31:23;29.77;;;13.05;;
61385;SDS011;47256;18.904;-99.054;2023-05-20T01:33:53;29.48;;;13.32;;
61385;SDS011;47256;18.904;-99.054;2023-05-20T01:36:24;23.55;;;13.00;;
61385;SDS011;47256;18.904;-99.054;2023-05-20T01:39:01;45.17;;;13.40;;
61385;SDS011;47256;18.904;-99.054;2023-05-20T01:41:31;29.35;;;15.05;;
61385;SDS011;47256;18.904;-99.054;2023-05-20T01:44:01;41.95;;;17.85;;
61385;SDS011;47256;18.904;-99.054;2023-05-20T01:46:31;50.50;;;21.77;;
61385;SDS011;47256;18.904;-99.054;2023-05-20T01:48:59;61.20;;;26.38;;
61385;SDS011;47256;18.904;-99.054;2023-05-20T01:51:27;51.30;;;24.80;;
61385;SDS011;47256;18.904;-99.054;2023-05-20T01:53:56;43.63;;;22.52;;
61385;SDS011;47256;18.904;-99.054;2023-05-20T01:56:23;46.25;;;23.25;;
61385;SDS011;47256;18.904;-99.054;2023-05-20T01:58:51;56.35;;;24.05;;
61385;SDS011;47256;18.904;-99.054;2023-05-20T02:01:18;56.70;;;24.17;;
61385;SDS011;47256;18.904;-99.054;2023-05-20T02:03:46;48.95;;;24.27;;
61385;SDS011;47256;18.904;-99.054;2023-05-20T02:06:15;54.63;;;25.08;;
61385;SDS011;47256;18.904;-99.054;2023-05-20T02:08:42;49.03;;;23.40;;
61385;SDS011;47256;18.904;-99.054;2023-05-20T02:11:09;42.67;;;23.70;;
61385;SDS011;47256;18.904;-99.054;2023-05-20T02:13:37;45.15;;;25.60;;
61385;SDS011;47256;18.904;-99.054;2023-05-20T02:16:05;52.05;;;26.55;;
61385;SDS011;47256;18.904;-99.054;2023-05-20T02:18:32;64.10;;;26.83;;
61385;SDS011;47256;18.904;-99.054;2023-05-20T02:21:01;63.85;;;30.08;;
61385;SDS011;47256;18.904;-99.054;2023-05-20T02:23:29;51.92;;;28.02;;
61385;SDS011;47256;18.904;-99.054;2023-05-20T02:25:57;59.13;;;28.50;;
61385;SDS011;47256;18.904;-99.054;2023-05-20T02:28:25;62.45;;;30.02;;
61385;SDS011;47256;18.904;-99.054;2023-05-20T02:30:54;54.67;;;25.80;;
61385;SDS011;47256;18.904;-99.054;2023-05-20T02:33:21;55.90;;;27.60;;
61385;SDS011;47256;18.904;-99.054;2023-05-20T02:35:49;48.42;;;26.40;;
61385;SDS011;47256;18.904;-99.054;2023-05-20T02:38:16;54.33;;;26.10;;
61385;SDS011;47256;18.904;-99.054;2023-05-20T02:40:43;44.58;;;24.20;;
61385;SDS011;47256;18.904;-99.054;2023-05-20T02:43:11;48.17;;;24.27;;
61385;SDS011;47256;18.904;-99.054;2023-05-20T02:45:39;52.88;;;25.00;;
61385;SDS011;47256;18.904;-99.054;2023-05-20T02:48:06;45.55;;;26.05;;
61385;SDS011;47256;18.904;-99.054;2023-05-20T02:50:39;41.55;;;22.63;;
61385;SDS011;47256;18.904;-99.054;2023-05-20T02:53:06;43.97;;;22.25;;
61385;SDS011;47256;18.904;-99.054;2023-05-20T02:55:34;49.55;;;23.80;;
61385;SDS011;47256;18.904;-99.054;2023-05-20T02:58:01;34.25;;;20.73;;
61385;SDS011;47256;18.904;-99.054;2023-05-20T03:00:31;49.88;;;23.98;;
61385;SDS011;47256;18.904;-99.054;2023-05-20T03:03:07;51.88;;;21.55;;
61385;SDS011;47256;18.904;-99.054;2023-05-20T03:05:38;60.60;;;22.63;;
61385;SDS011;47256;18.904;-99.054;2023-05-20T03:08:08;44.72;;;21.52;;
61385;SDS011;47256;18.904;-99.054;2023-05-20T03:10:38;46.67;;;23.83;;
61385;SDS011;47256;18.904;-99.054;2023-05-20T03:13:06;55.58;;;21.92;;
61385;SDS011;47256;18.904;-99.054;2023-05-20T03:15:40;42.47;;;22.05;;
61385;SDS011;47256;18.904;-99.054;2023-05-20T03:18:11;46.25;;;21.90;;
61385;SDS011;47256;18.904;-99.054;2023-05-20T03:20:39;45.20;;;22.45;;
61385;SDS011;47256;18.904;-99.054;2023-05-20T03:23:09;42.85;;;23.00;;
61385;SDS011;47256;18.904;-99.054;2023-05-20T03:25:36;41.25;;;21.67;;
61385;SDS011;47256;18.904;-99.054;2023-05-20T03:28:04;37.72;;;21.35;;
61385;SDS011;47256;18.904;-99.054;2023-05-20T03:30:34;44.55;;;23.40;;
61385;SDS011;47256;18.904;-99.054;2023-05-20T03:33:01;48.05;;;23.20;;
61385;SDS011;47256;18.904;-99.054;2023-05-20T03:35:30;51.35;;;24.95;;
61385;SDS011;47256;18.904;-99.054;2023-05-20T03:37:58;62.15;;;31.05;;
61385;SDS011;47256;18.904;-99.054;2023-05-20T03:40:27;104.60;;;38.53;;
61385;SDS011;47256;18.904;-99.054;2023-05-20T03:42:54;105.43;;;40.22;;
61385;SDS011;47256;18.904;-99.054;2023-05-20T03:45:22;83.53;;;34.05;;
61385;SDS011;47256;18.904;-99.054;2023-05-20T03:48:04;83.93;;;33.60;;
61385;SDS011;47256;18.904;-99.054;2023-05-20T03:50:34;91.38;;;33.78;;
61385;SDS011;47256;18.904;-99.054;2023-05-20T03:53:01;64.43;;;29.40;;
61385;SDS011;47256;18.904;-99.054;2023-05-20T03:55:35;52.45;;;28.00;;
61385;SDS011;47256;18.904;-99.054;2023-05-20T03:58:05;41.95;;;26.27;;
61385;SDS011;47256;18.904;-99.054;2023-05-20T04:00:32;68.50;;;26.77;;
61385;SDS011;47256;18.904;-99.054;2023-05-20T04:03:01;49.53;;;24.75;;
61385;SDS011;47256;18.904;-99.054;2023-05-20T04:05:29;49.25;;;26.83;;
61385;SDS011;47256;18.904;-99.054;2023-05-20T04:07:59;48.10;;;25.52;;
61385;SDS011;47256;18.904;-99.054;2023-05-20T04:10:26;60.25;;;28.58;;
61385;SDS011;47256;18.904;-99.054;2023-05-20T04:12:53;102.18;;;32.75;;
61385;SDS011;47256;18.904;-99.054;2023-05-20T04:15:21;67.15;;;31.75;;
61385;SDS011;47256;18.904;-99.054;2023-05-20T04:17:54;67.13;;;31.80;;
61385;SDS011;47256;18.904;-99.054;2023-05-20T04:20:22;60.13;;;29.65;;
61385;SDS011;47256;18.904;-99.054;2023-05-20T04:22:51;55.05;;;29.13;;
61385;SDS011;47256;18.904;-99.054;2023-05-20T04:25:19;97.00;;;32.42;;
61385;SDS011;47256;18.904;-99.054;2023-05-20T04:27:47;56.85;;;29.40;;
61385;SDS011;47256;18.904;-99.054;2023-05-20T04:30:15;71.32;;;31.88;;
61385;SDS011;47256;18.904;-99.054;2023-05-20T04:32:43;83.82;;;33.47;;
61385;SDS011;47256;18.904;-99.054;2023-05-20T04:35:10;67.20;;;31.98;;
61385;SDS011;47256;18.904;-99.054;2023-05-20T04:37:41;73.15;;;33.63;;
61385;SDS011;47256;18.904;-99.054;2023-05-20T04:40:19;63.95;;;31.08;;
61385;SDS011;47256;18.904;-99.054;2023-05-20T04:42:47;63.08;;;30.33;;
61385;SDS011;47256;18.904;-99.054;2023-05-20T04:45:16;55.20;;;30.17;;
61385;SDS011;47256;18.904;-99.054;2023-05-20T04:47:43;48.47;;;29.30;;
61385;SDS011;47256;18.904;-99.054;2023-05-20T04:50:11;56.03;;;29.02;;
61385;SDS011;47256;18.904;-99.054;2023-05-20T04:52:40;54.13;;;29.45;;
61385;SDS011;47256;18.904;-99.054;2023-05-20T04:55:16;48.35;;;29.30;;
61385;SDS011;47256;18.904;-99.054;2023-05-20T04:57:44;42.53;;;28.55;;
61385;SDS011;47256;18.904;-99.054;2023-05-20T05:00:11;49.47;;;29.10;;
61385;SDS011;47256;18.904;-99.054;2023-05-20T05:02:40;43.80;;;27.55;;
61385;SDS011;47256;18.904;-99.054;2023-05-20T05:05:09;54.63;;;27.80;;
61385;SDS011;47256;18.904;-99.054;2023-05-20T05:07:37;62.47;;;30.88;;
61385;SDS011;47256;18.904;-99.054;2023-05-20T05:10:04;54.30;;;29.85;;
61385;SDS011;47256;18.904;-99.054;2023-05-20T05:12:32;84.35;;;31.17;;
61385;SDS011;47256;18.904;-99.054;2023-05-20T05:15:01;88.05;;;32.45;;
61385;SDS011;47256;18.904;-99.054;2023-05-20T05:17:29;81.50;;;30.33;;
61385;SDS011;47256;18.904;-99.054;2023-05-20T05:19:57;68.72;;;30.70;;
61385;SDS011;47256;18.904;-99.054;2023-05-20T05:22:26;64.28;;;30.70;;
61385;SDS011;47256;18.904;-99.054;2023-05-20T05:24:53;54.08;;;29.77;;
61385;SDS011;47256;18.904;-99.054;2023-05-20T05:27:21;46.45;;;29.65;;
61385;SDS011;47256;18.904;-99.054;2023-05-20T05:29:49;55.53;;;28.02;;
61385;SDS011;47256;18.904;-99.054;2023-05-20T05:32:17;52.33;;;27.35;;
61385;SDS011;47256;18.904;-99.054;2023-05-20T05:34:44;52.10;;;28.40;;
61385;SDS011;47256;18.904;-99.054;2023-05-20T05:37:13;43.05;;;24.85;;
61385;SDS011;47256;18.904;-99.054;2023-05-20T05:39:41;41.95;;;23.75;;
61385;SDS011;47256;18.904;-99.054;2023-05-20T05:42:08;44.58;;;23.65;;
61385;SDS011;47256;18.904;-99.054;2023-05-20T05:44:36;38.20;;;21.13;;
61385;SDS011;47256;18.904;-99.054;2023-05-20T05:47:05;37.05;;;22.20;;
61385;SDS011;47256;18.904;-99.054;2023-05-20T05:49:33;34.60;;;23.27;;
61385;SDS011;47256;18.904;-99.054;2023-05-20T05:52:01;37.53;;;24.33;;
61385;SDS011;47256;18.904;-99.054;2023-05-20T05:54:29;43.08;;;24.80;;
61385;SDS011;47256;18.904;-99.054;2023-05-20T05:56:56;40.17;;;24.25;;
61385;SDS011;47256;18.904;-99.054;2023-05-20T05:59:25;36.05;;;20.75;;
61385;SDS011;47256;18.904;-99.054;2023-05-20T06:01:52;70.03;;;24.42;;
61385;SDS011;47256;18.904;-99.054;2023-05-20T06:04:20;69.95;;;25.13;;
61385;SDS011;47256;18.904;-99.054;2023-05-20T06:06:51;62.55;;;26.25;;
61385;SDS011;47256;18.904;-99.054;2023-05-20T06:09:19;69.55;;;25.27;;
61385;SDS011;47256;18.904;-99.054;2023-05-20T06:11:46;43.38;;;22.35;;
61385;SDS011;47256;18.904;-99.054;2023-05-20T06:14:13;55.22;;;23.48;;
61385;SDS011;47256;18.904;-99.054;2023-05-20T06:16:41;54.05;;;23.90;;
61385;SDS011;47256;18.904;-99.054;2023-05-20T06:19:09;73.75;;;32.40;;
61385;SDS011;47256;18.904;-99.054;2023-05-20T06:21:36;61.47;;;31.02;;
61385;SDS011;47256;18.904;-99.054;2023-05-20T06:24:04;56.80;;;28.92;;
61385;SDS011;47256;18.904;-99.054;2023-05-20T06:26:33;54.15;;;28.13;;
61385;SDS011;47256;18.904;-99.054;2023-05-20T06:29:01;48.40;;;25.90;;
61385;SDS011;47256;18.904;-99.054;2023-05-20T06:31:29;43.83;;;26.02;;
61385;SDS011;47256;18.904;-99.054;2023-05-20T06:33:57;46.63;;;25.35;;
61385;SDS011;47256;18.904;-99.054;2023-05-20T06:36:25;57.80;;;26.27;;
61385;SDS011;47256;18.904;-99.054;2023-05-20T06:38:53;50.38;;;26.73;;
61385;SDS011;47256;18.904;-99.054;2023-05-20T06:41:20;45.83;;;27.52;;
61385;SDS011;47256;18.904;-99.054;2023-05-20T06:43:50;40.90;;;26.08;;
61385;SDS011;47256;18.904;-99.054;2023-05-20T06:46:36;54.60;;;26.92;;
61385;SDS011;47256;18.904;-99.054;2023-05-20T06:49:05;51.92;;;27.13;;
61385;SDS011;47256;18.904;-99.054;2023-05-20T06:51:33;61.20;;;26.42;;
61385;SDS011;47256;18.904;-99.054;2023-05-20T06:54:01;54.28;;;27.95;;
61385;SDS011;47256;18.904;-99.054;2023-05-20T06:56:29;53.15;;;27.08;;
61385;SDS011;47256;18.904;-99.054;2023-05-20T06:58:58;50.72;;;27.17;;
61385;SDS011;47256;18.904;-99.054;2023-05-20T07:01:26;45.40;;;25.88;;
61385;SDS011;47256;18.904;-99.054;2023-05-20T07:03:55;45.22;;;25.00;;
61385;SDS011;47256;18.904;-99.054;2023-05-20T07:06:23;43.55;;;25.65;;
61385;SDS011;47256;18.904;-99.054;2023-05-20T07:08:53;38.55;;;23.70;;
61385;SDS011;47256;18.904;-99.054;2023-05-20T07:11:20;37.30;;;22.73;;
61385;SDS011;47256;18.904;-99.054;2023-05-20T07:13:48;38.22;;;23.48;;
61385;SDS011;47256;18.904;-99.054;2023-05-20T07:16:15;41.30;;;23.60;;
61385;SDS011;47256;18.904;-99.054;2023-05-20T07:18:48;39.38;;;25.05;;
61385;SDS011;47256;18.904;-99.054;2023-05-20T07:21:16;41.78;;;26.73;;
61385;SDS011;47256;18.904;-99.054;2023-05-20T07:23:59;45.70;;;25.60;;
61385;SDS011;47256;18.904;-99.054;2023-05-20T07:26:27;49.10;;;25.65;;
61385;SDS011;47256;18.904;-99.054;2023-05-20T07:28:58;37.85;;;23.85;;
61385;SDS011;47256;18.904;-99.054;2023-05-20T07:31:26;40.88;;;23.33;;
61385;SDS011;47256;18.904;-99.054;2023-05-20T07:33:54;42.25;;;24.13;;
61385;SDS011;47256;18.904;-99.054;2023-05-20T07:36:21;42.90;;;25.20;;
61385;SDS011;47256;18.904;-99.054;2023-05-20T07:38:51;38.20;;;24.65;;
61385;SDS011;47256;18.904;-99.054;2023-05-20T07:41:19;33.75;;;22.73;;
61385;SDS011;47256;18.904;-99.054;2023-05-20T07:43:47;37.08;;;24.38;;
61385;SDS011;47256;18.904;-99.054;2023-05-20T07:46:15;38.25;;;23.77;;
61385;SDS011;47256;18.904;-99.054;2023-05-20T07:48:42;34.92;;;23.48;;
61385;SDS011;47256;18.904;-99.054;2023-05-20T07:51:12;43.63;;;25.25;;
61385;SDS011;47256;18.904;-99.054;2023-05-20T07:53:39;37.65;;;24.17;;
61385;SDS011;47256;18.904;-99.054;2023-05-20T07:56:06;43.72;;;23.67;;
61385;SDS011;47256;18.904;-99.054;2023-05-20T07:58:33;42.53;;;22.67;;
61385;SDS011;47256;18.904;-99.054;2023-05-20T08:01:00;32.50;;;22.55;;
61385;SDS011;47256;18.904;-99.054;2023-05-20T08:03:54;27.35;;;20.85;;
61385;SDS011;47256;18.904;-99.054;2023-05-20T08:06:23;37.08;;;24.38;;
61385;SDS011;47256;18.904;-99.054;2023-05-20T08:08:51;37.70;;;23.08;;
61385;SDS011;47256;18.904;-99.054;2023-05-20T08:11:27;37.13;;;23.70;;
61385;SDS011;47256;18.904;-99.054;2023-05-20T08:13:55;40.45;;;24.45;;
61385;SDS011;47256;18.904;-99.054;2023-05-20T08:16:24;41.53;;;23.05;;
61385;SDS011;47256;18.904;-99.054;2023-05-20T08:18:52;33.40;;;23.55;;
61385;SDS011;47256;18.904;-99.054;2023-05-20T08:21:20;40.17;;;22.02;;
61385;SDS011;47256;18.904;-99.054;2023-05-20T08:23:47;30.92;;;21.90;;
61385;SDS011;47256;18.904;-99.054;2023-05-20T08:26:16;29.38;;;22.30;;
61385;SDS011;47256;18.904;-99.054;2023-05-20T08:28:43;30.77;;;21.95;;
61385;SDS011;47256;18.904;-99.054;2023-05-20T08:31:12;27.95;;;21.33;;
61385;SDS011;47256;18.904;-99.054;2023-05-20T08:33:39;36.15;;;22.35;;
61385;SDS011;47256;18.904;-99.054;2023-05-20T08:36:06;39.40;;;21.88;;
61385;SDS011;47256;18.904;-99.054;2023-05-20T08:38:34;27.48;;;21.13;;
61385;SDS011;47256;18.904;-99.054;2023-05-20T08:41:01;31.63;;;22.90;;
61385;SDS011;47256;18.904;-99.054;2023-05-20T08:43:28;34.15;;;23.35;;
61385;SDS011;47256;18.904;-99.054;2023-05-20T08:45:58;31.23;;;21.02;;
61385;SDS011;47256;18.904;-99.054;2023-05-20T08:48:29;42.35;;;21.08;;
61385;SDS011;47256;18.904;-99.054;2023-05-20T08:50:58;26.73;;;21.10;;
61385;SDS011;47256;18.904;-99.054;2023-05-20T08:53:30;35.63;;;22.92;;
61385;SDS011;47256;18.904;-99.054;2023-05-20T08:56:00;29.70;;;21.23;;
61385;SDS011;47256;18.904;-99.054;2023-05-20T08:58:31;31.88;;;21.00;;
61385;SDS011;47256;18.904;-99.054;2023-05-20T09:00:58;23.30;;;18.67;;
61385;SDS011;47256;18.904;-99.054;2023-05-20T09:03:30;32.30;;;19.98;;
61385;SDS011;47256;18.904;-99.054;2023-05-20T09:06:03;33.30;;;20.55;;
61385;SDS011;47256;18.904;-99.054;2023-05-20T09:08:34;27.95;;;21.23;;
61385;SDS011;47256;18.904;-99.054;2023-05-20T09:11:02;30.33;;;21.02;;
61385;SDS011;47256;18.904;-99.054;2023-05-20T09:13:29;27.17;;;21.88;;
61385;SDS011;47256;18.904;-99.054;2023-05-20T09:15:59;33.05;;;19.95;;
61385;SDS011;47256;18.904;-99.054;2023-05-20T09:18:28;33.22;;;20.15;;
61385;SDS011;47256;18.904;-99.054;2023-05-20T09:20:56;27.67;;;19.13;;
61385;SDS011;47256;18.904;-99.054;2023-05-20T09:23:23;40.92;;;20.75;;
61385;SDS011;47256;18.904;-99.054;2023-05-20T09:25:51;34.50;;;20.15;;
61385;SDS011;47256;18.904;-99.054;2023-05-20T09:28:19;30.35;;;20.55;;
61385;SDS011;47256;18.904;-99.054;2023-05-20T09:31:00;36.70;;;19.95;;
61385;SDS011;47256;18.904;-99.054;2023-05-20T09:33:28;36.50;;;20.00;;
61385;SDS011;47256;18.904;-99.054;2023-05-20T09:36:02;31.50;;;20.00;;
61385;SDS011;47256;18.904;-99.054;2023-05-20T09:38:32;30.35;;;21.48;;
61385;SDS011;47256;18.904;-99.054;2023-05-20T09:41:05;36.88;;;20.33;;
61385;SDS011;47256;18.904;-99.054;2023-05-20T09:43:35;31.35;;;19.08;;
61385;SDS011;47256;18.904;-99.054;2023-05-20T09:46:04;29.30;;;19.15;;
61385;SDS011;47256;18.904;-99.054;2023-05-20T09:48:36;27.23;;;18.65;;
61385;SDS011;47256;18.904;-99.054;2023-05-20T09:51:04;25.38;;;19.00;;
61385;SDS011;47256;18.904;-99.054;2023-05-20T09:53:32;32.85;;;20.02;;
61385;SDS011;47256;18.904;-99.054;2023-05-20T09:56:00;28.60;;;19.52;;
61385;SDS011;47256;18.904;-99.054;2023-05-20T09:58:27;36.78;;;20.05;;
61385;SDS011;47256;18.904;-99.054;2023-05-20T10:00:55;25.42;;;19.58;;
61385;SDS011;47256;18.904;-99.054;2023-05-20T10:03:29;30.50;;;19.33;;
61385;SDS011;47256;18.904;-99.054;2023-05-20T10:19:47;22.13;;;18.10;;
61385;SDS011;47256;18.904;-99.054;2023-05-20T10:22:24;32.83;;;18.85;;
61385;SDS011;47256;18.904;-99.054;2023-05-20T10:24:57;28.15;;;19.25;;
61385;SDS011;47256;18.904;-99.054;2023-05-20T10:27:26;29.95;;;19.00;;
61385;SDS011;47256;18.904;-99.054;2023-05-20T10:29:54;30.67;;;18.13;;
61385;SDS011;47256;18.904;-99.054;2023-05-20T10:32:23;30.67;;;19.20;;
61385;SDS011;47256;18.904;-99.054;2023-05-20T10:35:01;29.05;;;18.25;;
61385;SDS011;47256;18.904;-99.054;2023-05-20T10:37:44;25.10;;;18.35;;
61385;SDS011;47256;18.904;-99.054;2023-05-20T10:40:13;23.85;;;18.20;;
61385;SDS011;47256;18.904;-99.054;2023-05-20T10:42:41;28.70;;;18.88;;
61385;SDS011;47256;18.904;-99.054;2023-05-20T10:45:10;21.85;;;17.08;;
61385;SDS011;47256;18.904;-99.054;2023-05-20T10:47:41;24.67;;;16.73;;
61385;SDS011;47256;18.904;-99.054;2023-05-20T10:50:36;29.05;;;17.75;;
61385;SDS011;47256;18.904;-99.054;2023-05-20T10:53:05;28.48;;;17.73;;
61385;SDS011;47256;18.904;-99.054;2023-05-20T10:55:47;30.67;;;18.63;;
61385;SDS011;47256;18.904;-99.054;2023-05-20T10:58:20;26.10;;;17.23;;
61385;SDS011;47256;18.904;-99.054;2023-05-20T11:00:51;23.05;;;18.20;;
61385;SDS011;47256;18.904;-99.054;2023-05-20T11:03:20;24.80;;;17.60;;
61385;SDS011;47256;18.904;-99.054;2023-05-20T11:05:48;26.75;;;18.30;;
61385;SDS011;47256;18.904;-99.054;2023-05-20T11:08:16;28.80;;;19.17;;
61385;SDS011;47256;18.904;-99.054;2023-05-20T11:10:44;27.75;;;18.25;;
61385;SDS011;47256;18.904;-99.054;2023-05-20T11:13:12;29.38;;;17.80;;
61385;SDS011;47256;18.904;-99.054;2023-05-20T11:15:40;26.23;;;17.60;;
61385;SDS011;47256;18.904;-99.054;2023-05-20T11:18:09;21.38;;;17.77;;
61385;SDS011;47256;18.904;-99.054;2023-05-20T11:20:39;26.27;;;18.15;;
61385;SDS011;47256;18.904;-99.054;2023-05-20T11:23:10;34.50;;;18.92;;
61385;SDS011;47256;18.904;-99.054;2023-05-20T11:25:39;28.95;;;18.48;;
61385;SDS011;47256;18.904;-99.054;2023-05-20T11:28:15;28.50;;;17.85;;
61385;SDS011;47256;18.904;-99.054;2023-05-20T11:30:44;28.90;;;18.55;;
61385;SDS011;47256;18.904;-99.054;2023-05-20T11:33:13;27.92;;;19.08;;
61385;SDS011;47256;18.904;-99.054;2023-05-20T11:35:45;30.15;;;18.83;;
61385;SDS011;47256;18.904;-99.054;2023-05-20T11:38:15;32.97;;;19.48;;
61385;SDS011;47256;18.904;-99.054;2023-05-20T11:40:44;36.65;;;19.08;;
61385;SDS011;47256;18.904;-99.054;2023-05-20T11:43:13;28.40;;;19.60;;
61385;SDS011;47256;18.904;-99.054;2023-05-20T11:45:41;34.17;;;19.52;;
61385;SDS011;47256;18.904;-99.054;2023-05-20T11:48:09;62.42;;;22.23;;
61385;SDS011;47256;18.904;-99.054;2023-05-20T11:50:38;43.63;;;19.35;;
61385;SDS011;47256;18.904;-99.054;2023-05-20T11:53:09;36.20;;;20.02;;
61385;SDS011;47256;18.904;-99.054;2023-05-20T11:55:58;34.55;;;19.83;;
61385;SDS011;47256;18.904;-99.054;2023-05-20T11:58:30;33.28;;;19.05;;
61385;SDS011;47256;18.904;-99.054;2023-05-20T12:01:00;34.38;;;20.23;;
61385;SDS011;47256;18.904;-99.054;2023-05-20T12:03:52;37.90;;;20.35;;
61385;SDS011;47256;18.904;-99.054;2023-05-20T12:06:19;24.88;;;18.63;;
61385;SDS011;47256;18.904;-99.054;2023-05-20T12:08:47;36.08;;;19.75;;
61385;SDS011;47256;18.904;-99.054;2023-05-20T12:11:14;28.35;;;20.50;;
61385;SDS011;47256;18.904;-99.054;2023-05-20T12:13:41;27.75;;;18.83;;
61385;SDS011;47256;18.904;-99.054;2023-05-20T12:16:09;38.60;;;19.13;;
61385;SDS011;47256;18.904;-99.054;2023-05-20T12:18:36;72.85;;;23.63;;
61385;SDS011;47256;18.904;-99.054;2023-05-20T12:21:03;41.38;;;20.67;;
61385;SDS011;47256;18.904;-99.054;2023-05-20T12:23:31;33.67;;;20.33;;
61385;SDS011;47256;18.904;-99.054;2023-05-20T12:25:59;40.75;;;20.88;;
61385;SDS011;47256;18.904;-99.054;2023-05-20T12:28:26;28.50;;;19.08;;
61385;SDS011;47256;18.904;-99.054;2023-05-20T12:30:53;34.00;;;20.65;;
61385;SDS011;47256;18.904;-99.054;2023-05-20T12:33:20;35.92;;;18.90;;
61385;SDS011;47256;18.904;-99.054;2023-05-20T12:35:49;36.20;;;19.02;;
61385;SDS011;47256;18.904;-99.054;2023-05-20T12:38:18;30.33;;;19.20;;
61385;SDS011;47256;18.904;-99.054;2023-05-20T12:40:45;33.00;;;19.13;;
61385;SDS011;47256;18.904;-99.054;2023-05-20T12:43:12;30.23;;;19.63;;
61385;SDS011;47256;18.904;-99.054;2023-05-20T12:45:39;27.83;;;18.50;;
61385;SDS011;47256;18.904;-99.054;2023-05-20T12:48:06;30.58;;;20.05;;
61385;SDS011;47256;18.904;-99.054;2023-05-20T12:50:33;32.17;;;19.90;;
61385;SDS011;47256;18.904;-99.054;2023-05-20T12:53:01;32.33;;;20.17;;
61385;SDS011;47256;18.904;-99.054;2023-05-20T12:55:28;35.92;;;20.80;;
61385;SDS011;47256;18.904;-99.054;2023-05-20T12:57:55;29.20;;;19.52;;
61385;SDS011;47256;18.904;-99.054;2023-05-20T13:00:22;33.03;;;19.13;;
61385;SDS011;47256;18.904;-99.054;2023-05-20T13:02:49;45.47;;;25.85;;
61385;SDS011;47256;18.904;-99.054;2023-05-20T13:05:18;53.78;;;24.63;;
61385;SDS011;47256;18.904;-99.054;2023-05-20T13:07:45;43.85;;;21.33;;
61385;SDS011;47256;18.904;-99.054;2023-05-20T13:10:13;96.40;;;38.22;;
61385;SDS011;47256;18.904;-99.054;2023-05-20T13:12:42;53.83;;;27.20;;
61385;SDS011;47256;18.904;-99.054;2023-05-20T13:15:12;38.80;;;20.65;;
61385;SDS011;47256;18.904;-99.054;2023-05-20T13:17:40;30.92;;;19.27;;
61385;SDS011;47256;18.904;-99.054;2023-05-20T13:20:07;40.53;;;24.75;;
61385;SDS011;47256;18.904;-99.054;2023-05-20T13:22:35;45.53;;;24.70;;
61385;SDS011;47256;18.904;-99.054;2023-05-20T13:25:03;55.35;;;31.20;;
61385;SDS011;47256;18.904;-99.054;2023-05-20T13:27:31;80.80;;;38.80;;
61385;SDS011;47256;18.904;-99.054;2023-05-20T13:29:58;68.25;;;37.85;;
61385;SDS011;47256;18.904;-99.054;2023-05-20T13:32:26;61.10;;;37.00;;
61385;SDS011;47256;18.904;-99.054;2023-05-20T13:34:54;78.20;;;37.00;;
61385;SDS011;47256;18.904;-99.054;2023-05-20T13:37:21;62.28;;;35.67;;
61385;SDS011;47256;18.904;-99.054;2023-05-20T13:39:49;55.53;;;32.38;;
61385;SDS011;47256;18.904;-99.054;2023-05-20T13:42:16;51.38;;;29.88;;
61385;SDS011;47256;18.904;-99.054;2023-05-20T13:44:44;57.92;;;29.55;;
61385;SDS011;47256;18.904;-99.054;2023-05-20T13:47:11;39.60;;;22.13;;
61385;SDS011;47256;18.904;-99.054;2023-05-20T13:49:38;31.92;;;22.05;;
61385;SDS011;47256;18.904;-99.054;2023-05-20T13:52:05;38.30;;;20.27;;
61385;SDS011;47256;18.904;-99.054;2023-05-20T13:54:33;26.95;;;20.40;;
61385;SDS011;47256;18.904;-99.054;2023-05-20T13:57:00;33.58;;;21.42;;
61385;SDS011;47256;18.904;-99.054;2023-05-20T13:59:32;45.72;;;22.70;;
61385;SDS011;47256;18.904;-99.054;2023-05-20T14:01:59;39.22;;;22.88;;
61385;SDS011;47256;18.904;-99.054;2023-05-20T14:04:28;41.03;;;22.90;;
61385;SDS011;47256;18.904;-99.054;2023-05-20T14:06:56;50.90;;;23.25;;
61385;SDS011;47256;18.904;-99.054;2023-05-20T14:09:25;46.58;;;22.17;;
61385;SDS011;47256;18.904;-99.054;2023-05-20T14:11:52;71.10;;;23.88;;
61385;SDS011;47256;18.904;-99.054;2023-05-20T14:14:19;42.67;;;20.70;;
61385;SDS011;47256;18.904;-99.054;2023-05-20T14:16:46;47.60;;;22.67;;
61385;SDS011;47256;18.904;-99.054;2023-05-20T14:19:13;58.00;;;23.63;;
61385;SDS011;47256;18.904;-99.054;2023-05-20T14:21:40;26.90;;;18.08;;